createdAt,value
2018-03-25T00:00:50.912Z,53.17
2018-03-25T00:03:18.457Z,53.40
2018-03-25T00:05:45.980Z,52.57
2018-03-25T00:08:13.527Z,55.10
2018-03-25T00:10:41.071Z,56.43
2018-03-25T00:13:08.588Z,57.23
2018-03-25T00:15:36.156Z,58.67
2018-03-25T00:18:03.693Z,58.83
2018-03-25T00:20:31.229Z,66.33
2018-03-25T00:22:58.887Z,69.40
2018-03-25T00:25:26.411Z,69.57
2018-03-25T00:27:53.934Z,72.47
2018-03-25T00:30:21.492Z,72.93
2018-03-25T00:32:49.011Z,73.60
2018-03-25T00:35:17.306Z,76.97
2018-03-25T00:37:45.643Z,75.87
2018-03-25T00:40:13.171Z,73.87
2018-03-25T00:42:40.701Z,78.93
2018-03-25T00:45:09.024Z,74.20
2018-03-25T00:47:36.550Z,77.40
2018-03-25T00:50:04.840Z,80.40
2018-03-25T00:52:32.398Z,77.13
2018-03-25T00:55:00.689Z,77.07
2018-03-25T00:57:28.236Z,75.53
2018-03-25T00:59:56.667Z,72.80
2018-03-25T01:02:24.190Z,72.47
2018-03-25T01:04:52.462Z,70.20
2018-03-25T01:07:20.784Z,71.53
2018-03-25T01:09:48.318Z,74.40
2018-03-25T01:12:15.857Z,73.63
2018-03-25T01:14:43.449Z,66.93
2018-03-25T01:17:10.998Z,70.70
2018-03-25T01:19:39.350Z,63.93
2018-03-25T01:22:07.002Z,62.57
2018-03-25T01:24:34.570Z,65.37
2018-03-25T01:27:02.088Z,62.23
2018-03-25T01:29:29.738Z,63.40
2018-03-25T01:31:58.013Z,62.63
2018-03-25T01:34:25.540Z,65.27
2018-03-25T01:36:53.087Z,61.37
2018-03-25T01:39:20.601Z,62.50
2018-03-25T01:41:48.124Z,61.57
2018-03-25T01:44:15.667Z,63.03
2018-03-25T01:46:43.199Z,60.83
2018-03-25T01:49:11.480Z,59.63
2018-03-25T01:51:39.784Z,61.40
2018-03-25T01:54:07.305Z,60.13
2018-03-25T01:56:34.847Z,57.97
2018-03-25T01:59:02.485Z,56.63
2018-03-25T02:01:29.996Z,56.90
2018-03-25T02:03:57.511Z,53.97
2018-03-25T02:06:25.063Z,56.70
2018-03-25T02:08:52.586Z,55.60
2018-03-25T02:11:20.101Z,56.13
2018-03-25T02:13:47.664Z,56.33
2018-03-25T02:16:15.169Z,55.67
2018-03-25T02:18:42.694Z,54.97
2018-03-25T02:21:10.250Z,52.90
2018-03-25T02:23:37.792Z,53.00
2018-03-25T02:26:06.078Z,53.57
2018-03-25T02:28:34.483Z,51.63
2018-03-25T02:31:02.004Z,50.77
2018-03-25T02:33:29.508Z,52.80
2018-03-25T02:35:57.063Z,51.67
2018-03-25T02:38:25.354Z,53.73
2018-03-25T02:40:52.883Z,53.83
2018-03-25T02:43:21.314Z,54.43
2018-03-25T02:45:48.835Z,55.53
2018-03-25T02:48:17.130Z,55.00
2018-03-25T02:50:44.707Z,57.90
2018-03-25T02:53:12.232Z,58.90
2018-03-25T02:55:40.524Z,60.57
2018-03-25T02:58:08.842Z,58.07
2018-03-25T03:00:36.374Z,59.83
2018-03-25T03:03:04.656Z,59.93
2018-03-25T03:05:33.057Z,55.93
2018-03-25T03:08:00.604Z,56.43
2018-03-25T03:10:28.137Z,54.03
2018-03-25T03:12:55.667Z,54.17
2018-03-25T03:15:23.186Z,53.33
2018-03-25T03:17:51.462Z,52.47
2018-03-25T03:20:19.854Z,51.37
2018-03-25T03:22:48.122Z,52.27
2018-03-25T03:25:16.424Z,49.80
2018-03-25T03:27:43.960Z,51.43
2018-03-25T03:30:11.471Z,49.43
2018-03-25T03:32:39.005Z,54.47
2018-03-25T03:35:07.326Z,52.37
2018-03-25T03:37:34.842Z,52.20
2018-03-25T03:40:03.136Z,52.50
2018-03-25T03:42:30.684Z,53.33
2018-03-25T03:44:58.954Z,50.97
2018-03-25T03:47:26.480Z,53.00
2018-03-25T03:49:54.038Z,52.73
2018-03-25T03:52:21.555Z,54.33
2018-03-25T03:54:49.862Z,55.73
2018-03-25T03:57:17.418Z,54.27
2018-03-25T03:59:44.944Z,54.37
2018-03-25T04:02:12.472Z,53.17
2018-03-25T04:04:40.006Z,54.57
2018-03-25T04:07:07.533Z,52.77
2018-03-25T04:09:35.056Z,53.00
2018-03-25T04:12:02.577Z,54.90
2018-03-25T04:14:30.859Z,52.73
2018-03-25T04:16:59.140Z,51.40
2018-03-25T04:19:27.456Z,51.40
2018-03-25T04:21:54.977Z,52.90
2018-03-25T04:24:22.504Z,50.57
2018-03-25T04:26:50.060Z,48.93
2018-03-25T04:29:17.597Z,49.73
2018-03-25T04:31:45.118Z,48.13
2018-03-25T04:34:12.765Z,46.37
2018-03-25T04:36:40.298Z,46.13
2018-03-25T04:39:07.814Z,45.00
2018-03-25T04:41:35.392Z,43.13
2018-03-25T04:44:03.677Z,41.70
2018-03-25T04:46:31.995Z,40.50
2018-03-25T04:48:59.518Z,40.70
2018-03-25T04:51:27.830Z,40.37
2018-03-25T04:53:55.412Z,39.07
2018-03-25T04:56:22.900Z,38.43
2018-03-25T04:58:50.414Z,41.03
2018-03-25T05:01:17.968Z,39.70
2018-03-25T05:03:45.479Z,40.63
2018-03-25T05:06:13.005Z,41.60
2018-03-25T05:08:40.540Z,44.67
2018-03-25T05:11:08.826Z,43.97
2018-03-25T05:13:37.148Z,43.53
2018-03-25T05:16:04.668Z,45.73
2018-03-25T05:18:32.948Z,49.20
2018-03-25T05:21:01.267Z,48.23
2018-03-25T05:23:28.781Z,50.33
2018-03-25T05:25:56.318Z,53.53
2018-03-25T05:28:23.862Z,58.27
2018-03-25T05:30:51.383Z,54.83
2018-03-25T05:33:19.670Z,58.53
2018-03-25T05:35:48.090Z,53.13
2018-03-25T05:38:15.619Z,51.80
2018-03-25T05:40:43.897Z,48.60
2018-03-25T05:43:12.196Z,54.37
2018-03-25T05:45:39.720Z,57.93
2018-03-25T05:48:07.264Z,62.57
2018-03-25T05:50:34.829Z,63.90
2018-03-25T05:53:02.360Z,48.77
2018-03-25T05:55:29.866Z,43.97
2018-03-25T05:57:57.420Z,40.83
2018-03-25T06:00:24.955Z,38.63
2018-03-25T06:02:52.483Z,40.13
2018-03-25T06:05:20.794Z,36.97
2018-03-25T06:07:48.334Z,35.20
2018-03-25T06:10:15.860Z,32.43
2018-03-25T06:12:43.423Z,33.17
2018-03-25T06:15:11.007Z,32.53
2018-03-25T06:17:38.558Z,31.40
2018-03-25T06:20:06.228Z,29.60
2018-03-25T06:22:33.766Z,28.73
2018-03-25T06:25:01.296Z,28.53
2018-03-25T06:27:28.871Z,25.87
2018-03-25T06:29:56.408Z,26.03
2018-03-25T06:32:24.722Z,26.07
2018-03-25T06:34:52.287Z,24.30
2018-03-25T06:37:19.815Z,22.43
2018-03-25T06:39:48.136Z,21.53
2018-03-25T06:42:15.682Z,20.47
2018-03-25T06:44:43.204Z,18.97
2018-03-25T06:47:10.728Z,18.80
2018-03-25T06:49:38.318Z,21.07
2018-03-25T06:52:05.857Z,17.80
2018-03-25T06:54:33.385Z,18.63
2018-03-25T06:57:00.947Z,18.47
2018-03-25T06:59:29.276Z,17.70
2018-03-25T07:01:56.817Z,18.53
2018-03-25T07:04:24.445Z,19.17
2018-03-25T07:06:52.751Z,18.03
2018-03-25T07:09:20.350Z,19.03
2018-03-25T07:11:47.933Z,17.47
2018-03-25T07:14:15.470Z,20.73
2018-03-25T07:16:43.003Z,19.43
2018-03-25T07:19:10.554Z,18.60
2018-03-25T07:21:38.885Z,18.80
2018-03-25T07:24:06.406Z,21.23
2018-03-25T07:26:34.070Z,18.87
2018-03-25T07:29:01.592Z,18.10
2018-03-25T07:31:29.149Z,19.33
2018-03-25T07:33:56.716Z,17.47
2018-03-25T07:36:24.261Z,19.10
2018-03-25T07:38:51.825Z,19.83
2018-03-25T07:41:19.423Z,19.67
2018-03-25T07:43:46.951Z,20.87
2018-03-25T07:46:14.508Z,18.60
2018-03-25T07:48:42.076Z,19.23
2018-03-25T07:51:09.607Z,19.20
2018-03-25T07:53:37.927Z,19.40
2018-03-25T07:56:06.299Z,19.17
2018-03-25T07:58:33.879Z,21.57
2018-03-25T08:01:01.420Z,19.60
2018-03-25T08:03:29.001Z,21.37
2018-03-25T08:05:56.553Z,21.57
2018-03-25T08:08:24.079Z,20.07
2018-03-25T08:10:52.497Z,20.60
2018-03-25T08:13:20.817Z,18.57
2018-03-25T08:15:48.371Z,17.30
2018-03-25T08:18:15.974Z,16.20
2018-03-25T08:20:45.206Z,15.80
2018-03-25T08:23:12.764Z,15.30
2018-03-25T08:25:40.334Z,16.47
2018-03-25T08:28:07.870Z,15.23
2018-03-25T08:30:36.208Z,15.60
2018-03-25T08:33:03.755Z,13.57
2018-03-25T08:35:31.318Z,11.87
2018-03-25T08:37:58.900Z,12.57
2018-03-25T08:40:26.464Z,12.27
2018-03-25T08:42:54.034Z,12.97
2018-03-25T08:45:21.621Z,13.57
2018-03-25T08:47:49.934Z,14.43
2018-03-25T08:50:17.481Z,12.57
2018-03-25T08:52:45.975Z,10.73
2018-03-25T08:55:14.465Z,11.73
2018-03-25T08:57:42.097Z,11.13
2018-03-25T09:00:09.931Z,11.17
2018-03-25T09:02:37.577Z,10.37
2018-03-25T09:05:05.434Z,10.37
2018-03-25T09:07:33.001Z,19.20
2018-03-25T09:10:00.544Z,11.03
2018-03-25T09:12:29.018Z,10.83
2018-03-25T09:14:56.634Z,11.30
2018-03-25T09:17:24.306Z,9.83
2018-03-25T09:19:52.205Z,9.50
2018-03-25T09:22:19.927Z,10.63
2018-03-25T09:24:47.475Z,10.80
2018-03-25T09:27:16.002Z,9.47
2018-03-25T09:29:43.771Z,10.17
2018-03-25T09:32:11.498Z,10.10
2018-03-25T09:34:39.832Z,10.13
2018-03-25T09:37:07.474Z,9.53
2018-03-25T09:39:35.216Z,9.60
2018-03-25T09:42:03.658Z,10.13
2018-03-25T09:44:31.332Z,9.30
2018-03-25T09:46:58.878Z,9.13
2018-03-25T09:49:26.409Z,9.63
2018-03-25T09:51:54.164Z,8.83
2018-03-25T09:54:21.745Z,10.07
2018-03-25T09:56:49.310Z,9.77
2018-03-25T09:59:16.865Z,8.30
2018-03-25T10:01:50.017Z,10.30
2018-03-25T10:04:17.596Z,9.63
2018-03-25T10:06:45.155Z,9.37
2018-03-25T10:09:12.721Z,10.43
2018-03-25T10:11:40.387Z,10.33
2018-03-25T10:14:07.914Z,10.50
2018-03-25T10:16:35.453Z,11.70
2018-03-25T10:19:03.121Z,10.40
2018-03-25T10:21:30.704Z,10.30
2018-03-25T10:23:58.269Z,9.87
2018-03-25T10:26:26.857Z,12.60
2018-03-25T10:28:54.415Z,13.20
2018-03-25T10:31:22.065Z,9.90
2018-03-25T10:33:49.649Z,11.20
2018-03-25T10:36:17.181Z,10.27
2018-03-25T10:38:44.786Z,20.23
2018-03-25T10:41:12.511Z,27.10
2018-03-25T10:43:40.041Z,14.63
2018-03-25T10:46:07.561Z,15.57
2018-03-25T10:48:35.277Z,15.07
2018-03-25T10:51:02.838Z,25.10
2018-03-25T10:53:30.359Z,21.13
2018-03-25T10:55:57.895Z,24.70
2018-03-25T10:58:25.506Z,29.30
2018-03-25T11:00:53.089Z,15.83
2018-03-25T11:03:20.631Z,11.63
2018-03-25T11:05:48.932Z,12.03
2018-03-25T11:08:16.481Z,10.90
2018-03-25T11:10:44.078Z,10.40
2018-03-25T11:13:12.358Z,17.30
2018-03-25T11:15:40.676Z,17.60
2018-03-25T11:18:08.430Z,13.33
2018-03-25T11:20:35.954Z,16.57
2018-03-25T11:23:03.517Z,15.93
2018-03-25T11:25:31.029Z,13.67
2018-03-25T11:27:58.540Z,12.10
2018-03-25T11:30:26.100Z,17.17
2018-03-25T11:32:53.616Z,12.83
2018-03-25T11:35:21.137Z,12.47
2018-03-25T11:37:48.664Z,10.60
2018-03-25T11:40:16.183Z,12.23
2018-03-25T11:42:44.494Z,12.60
2018-03-25T11:45:12.028Z,15.57
2018-03-25T11:47:40.309Z,14.57
2018-03-25T11:50:08.718Z,11.10
2018-03-25T11:52:36.240Z,13.47
2018-03-25T11:55:04.532Z,12.00
2018-03-25T11:57:32.928Z,12.10
2018-03-25T12:00:01.206Z,13.80
2018-03-25T12:02:29.504Z,13.73
2018-03-25T12:04:57.045Z,13.40
2018-03-25T12:07:25.334Z,14.90
2018-03-25T12:09:52.915Z,12.00
2018-03-25T12:12:20.473Z,11.17
2018-03-25T12:14:47.987Z,10.73
2018-03-25T12:17:15.523Z,13.03
2018-03-25T12:19:43.045Z,12.33
2018-03-25T12:22:11.323Z,9.57
2018-03-25T12:24:39.631Z,12.57
2018-03-25T12:27:07.169Z,14.00
2018-03-25T12:29:35.471Z,13.37
2018-03-25T12:32:03.044Z,13.27
2018-03-25T12:34:30.610Z,10.77
2018-03-25T12:36:58.148Z,11.00
2018-03-25T12:39:25.760Z,11.13
2018-03-25T12:41:53.268Z,10.53
2018-03-25T12:44:21.650Z,11.17
2018-03-25T12:46:50.113Z,11.00
2018-03-25T12:49:17.647Z,10.43
2018-03-25T12:51:45.189Z,10.83
2018-03-25T12:54:12.775Z,12.37
2018-03-25T12:56:40.448Z,10.70
2018-03-25T12:59:08.157Z,11.37
2018-03-25T13:01:36.644Z,12.00
2018-03-25T13:04:04.622Z,10.07
2018-03-25T13:06:32.281Z,10.63
2018-03-25T13:09:00.737Z,11.33
2018-03-25T13:11:28.258Z,11.27
2018-03-25T13:13:55.800Z,11.23
2018-03-25T13:16:24.323Z,11.63
2018-03-25T13:18:51.874Z,11.30
2018-03-25T13:21:19.417Z,10.03
2018-03-25T13:23:47.873Z,11.47
2018-03-25T13:26:15.428Z,9.63
2018-03-25T13:28:43.184Z,10.90
2018-03-25T13:31:10.742Z,9.43
2018-03-25T13:33:38.372Z,9.47
2018-03-25T13:36:05.890Z,9.70
2018-03-25T13:38:33.457Z,10.30
2018-03-25T13:41:01.031Z,10.53
2018-03-25T13:43:28.553Z,11.10
2018-03-25T13:45:56.154Z,11.63
2018-03-25T13:48:23.686Z,9.90
2018-03-25T13:50:51.369Z,9.43
2018-03-25T13:53:18.980Z,10.00
2018-03-25T13:55:46.541Z,9.47
2018-03-25T13:58:14.845Z,10.33
2018-03-25T14:00:42.419Z,9.70
2018-03-25T14:03:10.015Z,9.77
2018-03-25T14:05:37.879Z,10.20
2018-03-25T14:08:05.432Z,9.93
2018-03-25T14:10:32.945Z,9.67
2018-03-25T14:13:01.395Z,9.63
2018-03-25T14:15:29.014Z,10.07
2018-03-25T14:17:56.528Z,8.43
2018-03-25T14:20:24.045Z,9.20
2018-03-25T14:22:51.736Z,8.80
2018-03-25T14:25:19.263Z,9.53
2018-03-25T14:27:46.849Z,8.83
2018-03-25T14:30:14.885Z,9.30
2018-03-25T14:32:43.521Z,10.10
2018-03-25T14:35:11.093Z,9.70
2018-03-25T14:37:38.654Z,10.20
2018-03-25T14:40:06.178Z,9.50
2018-03-25T14:42:33.722Z,9.30
2018-03-25T14:45:02.118Z,9.43
2018-03-25T14:47:30.389Z,8.90
2018-03-25T14:49:58.699Z,9.50
2018-03-25T14:52:26.254Z,10.43
2018-03-25T14:54:53.778Z,9.40
2018-03-25T14:57:21.356Z,9.60
2018-03-25T14:59:49.635Z,8.60
2018-03-25T15:02:17.158Z,8.40
2018-03-25T15:04:45.516Z,9.10
2018-03-25T15:07:13.069Z,9.13
2018-03-25T15:09:40.627Z,8.83
2018-03-25T15:12:08.273Z,11.40
2018-03-25T15:14:36.561Z,9.80
2018-03-25T15:17:04.986Z,10.47
2018-03-25T15:19:32.549Z,9.37
2018-03-25T15:22:00.070Z,11.53
2018-03-25T15:24:28.424Z,12.90
2018-03-25T15:26:56.008Z,12.90
2018-03-25T15:29:23.537Z,9.93
2018-03-25T15:31:51.222Z,12.97
2018-03-25T15:34:18.744Z,10.57
2018-03-25T15:36:46.288Z,10.13
2018-03-25T15:39:13.839Z,10.40
2018-03-25T15:41:42.161Z,10.07
2018-03-25T15:44:09.695Z,10.83
2018-03-25T15:46:38.063Z,10.37
2018-03-25T15:49:05.557Z,10.10
2018-03-25T15:51:33.104Z,10.47
2018-03-25T15:54:00.661Z,11.43
2018-03-25T15:56:28.937Z,12.20
2018-03-25T15:58:57.212Z,12.97
2018-03-25T16:01:25.529Z,12.87
2018-03-25T16:03:53.075Z,12.73
2018-03-25T16:06:20.677Z,13.00
2018-03-25T16:08:48.248Z,12.20
2018-03-25T16:11:15.783Z,12.70
2018-03-25T16:13:43.287Z,15.17
2018-03-25T16:16:10.855Z,15.60
2018-03-25T16:18:38.366Z,17.17
2018-03-25T16:21:05.890Z,18.67
2018-03-25T16:23:33.442Z,18.23
2018-03-25T16:26:00.960Z,18.40
2018-03-25T16:28:28.482Z,18.03
2018-03-25T16:30:56.112Z,20.67
2018-03-25T16:33:23.639Z,18.63
2018-03-25T16:35:51.967Z,16.30
2018-03-25T16:38:19.505Z,14.23
2018-03-25T16:40:47.041Z,14.13
2018-03-25T16:43:15.340Z,14.40
2018-03-25T16:45:42.996Z,16.57
2018-03-25T16:48:10.543Z,16.50
2018-03-25T16:50:38.812Z,17.53
2018-03-25T16:53:06.398Z,20.30
2018-03-25T16:55:34.709Z,20.80
2018-03-25T16:58:02.281Z,20.57
2018-03-25T17:00:29.822Z,20.43
2018-03-25T17:02:57.339Z,19.30
2018-03-25T17:05:24.904Z,21.37
2018-03-25T17:07:52.443Z,19.70
2018-03-25T17:10:19.949Z,21.00
2018-03-25T17:12:48.230Z,20.57
2018-03-25T17:15:16.632Z,19.50
2018-03-25T17:17:44.218Z,18.63
2018-03-25T17:20:11.764Z,19.70
2018-03-25T17:22:39.312Z,19.70
2018-03-25T17:25:07.610Z,21.10
2018-03-25T17:27:35.166Z,20.23
2018-03-25T17:30:03.596Z,22.57
2018-03-25T17:32:31.174Z,21.77
2018-03-25T17:34:58.943Z,22.87
2018-03-25T17:37:26.702Z,23.97
2018-03-25T17:39:54.269Z,25.93
2018-03-25T17:42:21.958Z,29.50
2018-03-25T17:44:49.694Z,27.37
2018-03-25T17:47:17.277Z,27.43
2018-03-25T17:49:44.903Z,27.33
2018-03-25T17:52:12.695Z,27.00
2018-03-25T17:54:40.192Z,28.30
2018-03-25T17:57:08.551Z,25.80
2018-03-25T17:59:36.128Z,27.47
2018-03-25T18:02:03.653Z,21.87
2018-03-25T18:04:31.181Z,23.60
2018-03-25T18:06:59.519Z,22.17
2018-03-25T18:09:27.038Z,22.40
2018-03-25T18:11:54.581Z,22.57
2018-03-25T18:14:22.945Z,24.10
2018-03-25T18:16:50.492Z,23.87
2018-03-25T18:19:18.062Z,28.00
2018-03-25T18:21:46.378Z,27.07
2018-03-25T18:24:14.029Z,29.23
2018-03-25T18:26:41.493Z,29.97
2018-03-25T18:29:09.022Z,30.67
2018-03-25T18:31:36.564Z,34.67
2018-03-25T18:34:04.115Z,36.20
2018-03-25T18:36:31.674Z,36.40
2018-03-25T18:38:59.204Z,36.87
2018-03-25T18:41:26.820Z,37.23
2018-03-25T18:43:54.363Z,40.10
2018-03-25T18:46:21.886Z,38.77
2018-03-25T18:48:49.529Z,40.13
2018-03-25T18:51:17.577Z,43.17
2018-03-25T18:53:45.167Z,38.73
2018-03-25T18:56:12.835Z,38.97
2018-03-25T18:58:40.351Z,40.97
2018-03-25T19:01:08.628Z,37.90
2018-03-25T19:03:36.918Z,39.10
2018-03-25T19:06:04.446Z,38.17
2018-03-25T19:08:32.209Z,38.00
2018-03-25T19:10:59.773Z,39.03
2018-03-25T19:13:27.381Z,40.50
2018-03-25T19:15:54.948Z,40.50
2018-03-25T19:18:22.695Z,42.87
2018-03-25T19:20:51.031Z,44.57
2018-03-25T19:23:18.604Z,46.77
2018-03-25T19:25:46.144Z,46.57
2018-03-25T19:28:13.746Z,48.47
2018-03-25T19:30:41.348Z,49.73
2018-03-25T19:33:09.623Z,48.87
2018-03-25T19:35:38.047Z,47.47
2018-03-25T19:38:05.571Z,52.67
2018-03-25T19:40:33.883Z,51.40
2018-03-25T19:43:01.547Z,53.40
2018-03-25T19:45:29.124Z,52.23
2018-03-25T19:47:56.693Z,51.63
2018-03-25T19:50:24.346Z,50.90
2018-03-25T19:52:51.901Z,47.90
2018-03-25T19:55:19.411Z,48.53
2018-03-25T19:57:47.128Z,47.73
2018-03-25T20:00:14.760Z,48.57
2018-03-25T20:02:43.079Z,45.70
2018-03-25T20:05:10.936Z,47.63
2018-03-25T20:07:38.471Z,47.33
2018-03-25T20:10:05.997Z,46.40
2018-03-25T20:12:33.527Z,44.20
2018-03-25T20:15:01.062Z,42.53
2018-03-25T20:17:28.682Z,43.20
2018-03-25T20:19:56.222Z,42.23
2018-03-25T20:22:23.786Z,42.53
2018-03-25T20:24:51.337Z,42.40
2018-03-25T20:27:19.648Z,42.37
2018-03-25T20:29:47.252Z,42.00
2018-03-25T20:32:14.799Z,41.53
2018-03-25T20:34:42.304Z,40.97
2018-03-25T20:37:10.737Z,39.73
2018-03-25T20:39:38.282Z,41.10
2018-03-25T20:42:05.911Z,41.63
2018-03-25T20:44:34.225Z,41.10
2018-03-25T20:47:01.873Z,40.43
2018-03-25T20:49:30.602Z,41.00
2018-03-25T20:51:58.173Z,41.70
2018-03-25T20:54:25.720Z,44.00
2018-03-25T20:56:53.249Z,42.80
2018-03-25T20:59:21.785Z,41.63
2018-03-25T21:01:49.556Z,42.97
2018-03-25T21:04:17.302Z,44.03
2018-03-25T21:06:45.002Z,43.57
2018-03-25T21:09:12.853Z,44.23
2018-03-25T21:11:40.388Z,45.43
2018-03-25T21:14:07.912Z,46.63
2018-03-25T21:16:35.437Z,48.13
2018-03-25T21:19:03.144Z,48.20
2018-03-25T21:21:30.820Z,49.40
2018-03-25T21:23:58.354Z,51.43
2018-03-25T21:26:25.886Z,52.57
2018-03-25T21:28:53.569Z,50.50
2018-03-25T21:31:21.086Z,53.47
2018-03-25T21:33:49.505Z,48.57
2018-03-25T21:36:17.086Z,51.53
2018-03-25T21:38:44.588Z,54.97
2018-03-25T21:41:12.888Z,52.87
2018-03-25T21:43:41.203Z,52.53
2018-03-25T21:46:08.750Z,53.17
2018-03-25T21:48:36.294Z,55.37
2018-03-25T21:51:04.576Z,56.77
2018-03-25T21:53:32.907Z,55.90
2018-03-25T21:56:00.422Z,56.70
2018-03-25T21:58:28.777Z,57.47
2018-03-25T22:00:56.437Z,58.00
2018-03-25T22:03:23.951Z,62.37
2018-03-25T22:05:51.490Z,68.63
2018-03-25T22:08:19.815Z,64.83
2018-03-25T22:10:47.334Z,67.37
2018-03-25T22:13:15.636Z,65.43
2018-03-25T22:15:43.176Z,68.90
2018-03-25T22:18:11.466Z,71.30
2018-03-25T22:20:39.825Z,71.10
2018-03-25T22:23:07.341Z,72.30
2018-03-25T22:25:34.869Z,76.67
2018-03-25T22:28:03.147Z,79.57
2018-03-25T22:30:31.453Z,78.23
2018-03-25T22:32:59.002Z,81.50
2018-03-25T22:35:26.526Z,85.43
2018-03-25T22:37:54.045Z,85.20
2018-03-25T22:40:21.724Z,85.87
2018-03-25T22:42:49.389Z,84.57
2018-03-25T22:45:16.912Z,80.97
2018-03-25T22:47:45.321Z,86.73
2018-03-25T22:50:12.825Z,86.07
2018-03-25T22:52:40.349Z,89.27
2018-03-25T22:55:07.989Z,93.47
2018-03-25T22:57:36.260Z,91.70
2018-03-25T23:00:03.779Z,91.43
2018-03-25T23:02:31.337Z,92.20
2018-03-25T23:04:58.872Z,93.60
2018-03-25T23:07:26.393Z,89.67
2018-03-25T23:09:53.925Z,87.83
2018-03-25T23:12:21.459Z,89.60
2018-03-25T23:14:49.724Z,88.97
2018-03-25T23:17:18.029Z,91.57
2018-03-25T23:19:45.546Z,86.90
2018-03-25T23:22:13.975Z,87.83
2018-03-25T23:24:41.511Z,88.67
2018-03-25T23:27:09.014Z,88.90
2018-03-25T23:29:36.528Z,87.60
2018-03-25T23:32:04.078Z,89.57
2018-03-25T23:34:31.580Z,89.13
2018-03-25T23:36:59.867Z,91.00
2018-03-25T23:39:27.415Z,89.63
2018-03-25T23:41:55.687Z,90.13
2018-03-25T23:44:23.222Z,89.67
2018-03-25T23:46:50.765Z,88.57
2018-03-25T23:49:18.280Z,88.30
2018-03-25T23:51:46.590Z,85.87
2018-03-25T23:54:14.328Z,86.53
2018-03-25T23:56:42.604Z,87.60
2018-03-25T23:59:10.156Z,84.17
